Time;durP1;ratioP1;P1;durP2;ratioP2;P2;SDS_P1;SDS_P2;PMS_P1;PMS_P2;Temp;Humidity;BMP_temperature;BMP_pressure;BME280_temperature;BME280_humidity;BME280_pressure;Samples;Min_cycle;Max_cycle;Signal;HPM_P1;HPM_P2
2022/06/30 00:00:43;;;;;;;61.80;50.65;;;25.60;55.00;;;;;;5028338;27;85937;-56
2022/06/30 00:03:08;;;;;;;61.25;50.60;;;25.60;55.00;;;;;;5015228;27;86137;-53
2022/06/30 00:05:34;;;;;;;61.45;50.55;;;25.60;55.00;;;;;;5024205;27;88236;-55
2022/06/30 00:08:00;;;;;;;59.50;50.15;;;25.60;55.60;;;;;;5022327;27;88053;-56
2022/06/30 00:10:26;;;;;;;60.95;50.22;;;25.50;55.00;;;;;;5022096;27;85369;-54
2022/06/30 00:12:52;;;;;;;60.50;50.13;;;25.50;55.10;;;;;;5016917;27;86473;-56
2022/06/30 00:15:18;;;;;;;60.30;50.15;;;25.50;55.20;;;;;;5034631;27;85810;-55
2022/06/30 00:17:44;;;;;;;61.10;50.45;;;25.40;55.30;;;;;;5018650;27;86455;-55
2022/06/30 00:20:10;;;;;;;60.55;50.42;;;25.40;55.80;;;;;;5035444;27;87282;-55
2022/06/30 00:22:36;;;;;;;60.67;50.38;;;25.40;55.20;;;;;;5022245;27;89247;-56
2022/06/30 00:25:02;;;;;;;61.20;50.35;;;25.40;55.20;;;;;;5026702;27;86237;-57
2022/06/30 00:27:28;;;;;;;61.03;50.42;;;25.40;55.10;;;;;;5026021;27;86306;-51
2022/06/30 00:29:53;;;;;;;61.13;50.20;;;25.30;55.10;;;;;;5029519;27;90439;-55
2022/06/30 00:32:19;;;;;;;61.28;50.33;;;25.30;55.40;;;;;;5034330;27;85135;-52
2022/06/30 00:34:45;;;;;;;60.10;50.22;;;25.30;55.30;;;;;;5018569;27;87096;-53
2022/06/30 00:37:10;;;;;;;59.72;50.13;;;25.30;55.40;;;;;;5018031;27;90062;-55
2022/06/30 00:39:36;;;;;;;59.92;50.22;;;25.40;55.30;;;;;;5034851;27;85498;-57
2022/06/30 00:42:06;;;;;;;59.22;50.15;;;25.30;55.30;;;;;;5022063;27;86372;-54
2022/06/30 00:44:32;;;;;;;60.35;49.80;;;25.30;55.40;;;;;;5021308;27;85834;-56
2022/06/30 00:46:58;;;;;;;60.13;50.15;;;25.30;55.40;;;;;;5026603;27;85456;-57
2022/06/30 00:49:24;;;;;;;60.22;50.03;;;25.30;55.30;;;;;;5018053;27;88962;-54
2022/06/30 00:51:50;;;;;;;59.83;50.15;;;25.30;55.40;;;;;;5033931;27;85375;-57
2022/06/30 00:54:17;;;;;;;59.75;50.08;;;25.30;55.40;;;;;;5025259;27;85168;-56
2022/06/30 00:56:45;;;;;;;60.90;50.22;;;25.30;55.40;;;;;;5012694;27;88144;-54
2022/06/30 00:59:14;;;;;;;61.58;50.42;;;25.30;55.40;;;;;;5027062;27;86642;-54
2022/06/30 01:01:42;;;;;;;60.13;50.00;;;25.20;55.40;;;;;;5028232;27;85689;-57
2022/06/30 01:04:09;;;;;;;61.58;50.10;;;25.30;55.40;;;;;;5023323;27;93913;-57
2022/06/30 01:06:36;;;;;;;59.55;49.95;;;25.20;55.30;;;;;;5018315;27;86321;-57
2022/06/30 01:09:03;;;;;;;61.80;50.08;;;25.20;55.40;;;;;;5011229;27;93509;-57
2022/06/30 01:14:15;;;;;;;58.90;49.75;;;25.20;55.40;;;;;;5026339;27;85507;-56
2022/06/30 01:16:41;;;;;;;59.42;49.80;;;25.20;55.40;;;;;;5019020;27;86329;-56
2022/06/30 01:19:07;;;;;;;59.38;49.85;;;25.20;55.30;;;;;;5010291;27;85954;-57
2022/06/30 01:21:36;;;;;;;60.35;50.25;;;25.20;55.50;;;;;;5033425;27;85356;-57
2022/06/30 01:24:02;;;;;;;60.25;50.13;;;25.20;55.50;;;;;;5021045;27;85503;-56
2022/06/30 01:26:28;;;;;;;59.72;50.03;;;25.10;55.50;;;;;;5022210;27;85207;-57
2022/06/30 01:28:55;;;;;;;59.80;50.05;;;25.10;55.40;;;;;;5034811;27;88611;-55
2022/06/30 01:31:20;;;;;;;59.97;50.03;;;25.10;55.50;;;;;;5029084;27;85736;-57
2022/06/30 01:33:46;;;;;;;61.17;50.00;;;25.10;55.40;;;;;;5028920;27;86060;-53
2022/06/30 01:36:12;;;;;;;58.60;49.70;;;25.20;55.40;;;;;;5024074;27;86257;-57
2022/06/30 01:38:38;;;;;;;60.95;50.15;;;25.10;55.40;;;;;;5025864;27;85687;-57
2022/06/30 01:41:03;;;;;;;59.92;49.92;;;25.10;55.50;;;;;;5034923;27;86147;-55
2022/06/30 01:43:29;;;;;;;58.70;49.83;;;25.10;55.60;;;;;;5033696;27;86989;-54
2022/06/30 01:45:55;;;;;;;58.92;49.75;;;25.20;55.50;;;;;;5012706;27;85085;-56
2022/06/30 01:48:21;;;;;;;59.47;49.83;;;25.10;55.40;;;;;;5026938;27;85264;-51
2022/06/30 01:50:46;;;;;;;58.70;49.72;;;25.10;55.40;;;;;;5026115;27;85894;-56
2022/06/30 01:53:12;;;;;;;58.88;49.88;;;25.10;55.40;;;;;;5023607;27;85467;-56
2022/06/30 01:55:38;;;;;;;59.83;49.97;;;25.10;55.40;;;;;;5019985;27;85943;-55
2022/06/30 01:58:04;;;;;;;61.05;49.92;;;25.10;55.40;;;;;;5031865;27;92881;-57
2022/06/30 02:00:30;;;;;;;60.10;50.25;;;25.10;55.50;;;;;;5029070;27;86587;-56
2022/06/30 02:02:56;;;;;;;59.50;50.00;;;25.10;55.50;;;;;;5034643;27;86977;-56
2022/06/30 02:05:23;;;;;;;59.47;49.92;;;25.10;55.50;;;;;;5023049;27;87058;-57
2022/06/30 02:07:50;;;;;;;59.90;49.75;;;25.10;55.50;;;;;;5034167;27;85105;-55
2022/06/30 02:10:19;;;;;;;59.38;50.05;;;25.00;55.40;;;;;;5022236;27;85496;-55
2022/06/30 02:12:46;;;;;;;59.70;49.83;;;25.00;55.50;;;;;;5032523;27;85648;-57
2022/06/30 02:15:33;;;;;;;59.92;49.95;;;25.00;55.60;;;;;;5026029;27;86745;-56
2022/06/30 02:18:00;;;;;;;59.53;49.97;;;25.00;55.60;;;;;;5034590;27;85397;-57
2022/06/30 02:20:26;;;;;;;60.08;49.83;;;25.00;55.70;;;;;;5028617;27;86480;-56
2022/06/30 02:22:57;;;;;;;59.03;49.95;;;25.00;55.70;;;;;;5028539;27;85988;-56
2022/06/30 02:25:25;;;;;;;59.50;50.00;;;25.00;55.60;;;;;;5036334;27;87832;-57
2022/06/30 02:27:51;;;;;;;59.10;49.75;;;25.00;55.60;;;;;;5033715;27;85148;-56
2022/06/30 02:30:17;;;;;;;58.97;49.88;;;24.90;55.70;;;;;;5008241;27;85602;-57
2022/06/30 02:32:43;;;;;;;60.85;50.13;;;24.90;55.70;;;;;;5037719;27;85408;-57
2022/06/30 02:35:10;;;;;;;58.85;49.80;;;24.90;55.80;;;;;;5022148;27;86050;-57
2022/06/30 02:37:36;;;;;;;59.15;49.60;;;24.80;55.80;;;;;;5023453;27;85761;-53
2022/06/30 02:40:02;;;;;;;59.33;49.80;;;24.80;55.80;;;;;;5022600;27;85146;-54
2022/06/30 02:42:28;;;;;;;59.55;49.65;;;24.80;55.90;;;;;;5026908;27;85818;-56
2022/06/30 02:44:54;;;;;;;60.30;49.72;;;24.80;55.90;;;;;;5031575;27;85618;-53
2022/06/30 02:47:20;;;;;;;59.13;49.80;;;24.80;56.00;;;;;;5035749;27;85082;-56
2022/06/30 02:49:45;;;;;;;59.90;49.65;;;24.80;56.00;;;;;;5034082;27;91447;-56
2022/06/30 02:52:11;;;;;;;59.15;49.80;;;24.70;56.00;;;;;;5014906;27;85419;-57
2022/06/30 02:54:37;;;;;;;59.47;49.90;;;24.70;56.10;;;;;;5030216;27;85524;-56
2022/06/30 02:57:02;;;;;;;58.88;49.60;;;24.70;56.10;;;;;;5033091;27;85728;-54
2022/06/30 02:59:28;;;;;;;59.17;49.85;;;24.70;56.10;;;;;;5017130;27;85599;-57
2022/06/30 03:01:54;;;;;;;58.63;49.58;;;24.70;56.20;;;;;;4994917;27;88461;-56
2022/06/30 03:04:21;;;;;;;58.50;49.78;;;24.70;56.20;;;;;;5026250;27;87818;-55
2022/06/30 03:06:47;;;;;;;58.88;49.90;;;24.60;56.20;;;;;;5030351;27;86531;-57
2022/06/30 03:09:13;;;;;;;58.55;49.83;;;24.60;56.30;;;;;;5026036;27;87304;-57
2022/06/30 03:11:39;;;;;;;59.92;49.92;;;24.60;56.40;;;;;;5018911;27;85662;-57
2022/06/30 03:14:05;;;;;;;59.60;49.40;;;24.60;56.40;;;;;;5034687;27;88249;-57
2022/06/30 03:16:31;;;;;;;58.85;49.72;;;24.50;56.40;;;;;;5016494;27;85845;-54
2022/06/30 03:18:57;;;;;;;58.80;49.75;;;24.50;56.40;;;;;;5032190;27;85566;-57
2022/06/30 03:21:22;;;;;;;58.63;49.72;;;24.50;56.50;;;;;;5031944;27;86442;-57
2022/06/30 03:23:48;;;;;;;58.65;49.85;;;24.50;56.50;;;;;;5033645;27;85368;-57
2022/06/30 03:26:13;;;;;;;58.60;49.65;;;24.50;56.50;;;;;;5032181;27;85797;-56
2022/06/30 03:28:39;;;;;;;59.13;49.65;;;24.50;56.40;;;;;;5029954;27;91090;-57
2022/06/30 03:31:05;;;;;;;58.60;49.78;;;24.50;56.50;;;;;;5015949;27;86802;-56
2022/06/30 03:33:31;;;;;;;58.83;49.67;;;24.40;56.60;;;;;;5025411;27;85355;-57
2022/06/30 03:35:57;;;;;;;59.05;49.75;;;24.40;56.50;;;;;;5014779;27;87484;-56
2022/06/30 03:38:23;;;;;;;59.65;49.72;;;24.40;56.60;;;;;;5032956;27;85507;-55
2022/06/30 03:40:49;;;;;;;57.63;49.35;;;24.40;56.60;;;;;;5038008;27;85762;-57
2022/06/30 03:43:16;;;;;;;57.60;49.40;;;24.40;56.70;;;;;;5029918;27;89297;-56
2022/06/30 03:45:42;;;;;;;57.97;49.42;;;24.40;56.70;;;;;;5020701;27;85049;-55
2022/06/30 03:48:08;;;;;;;58.38;49.55;;;24.40;56.60;;;;;;5024782;27;85661;-55
2022/06/30 03:50:34;;;;;;;58.83;49.65;;;24.40;56.70;;;;;;5031037;27;90830;-57
2022/06/30 03:53:01;;;;;;;58.60;49.55;;;24.30;56.70;;;;;;5026053;27;85886;-54
2022/06/30 03:55:27;;;;;;;58.05;49.53;;;24.30;56.80;;;;;;5027862;27;89538;-55
2022/06/30 03:57:53;;;;;;;59.38;49.65;;;24.30;56.80;;;;;;5030411;27;86221;-55
2022/06/30 04:00:19;;;;;;;60.70;49.65;;;24.30;56.80;;;;;;5030103;27;85841;-55
2022/06/30 04:02:45;;;;;;;58.53;49.63;;;24.30;56.90;;;;;;5033961;27;85656;-56
2022/06/30 04:05:10;;;;;;;59.17;49.78;;;24.30;56.90;;;;;;5028710;27;87063;-57
2022/06/30 04:07:43;;;;;;;58.38;49.58;;;24.20;56.80;;;;;;5021254;27;85699;-56
2022/06/30 04:10:10;;;;;;;58.03;49.50;;;24.30;56.80;;;;;;5026734;27;86365;-57
2022/06/30 04:12:36;;;;;;;58.03;49.50;;;24.30;56.80;;;;;;5024017;27;85994;-55
2022/06/30 04:15:03;;;;;;;58.38;49.45;;;24.30;56.80;;;;;;5023349;27;88033;-53
2022/06/30 04:17:28;;;;;;;58.60;49.65;;;24.30;56.90;;;;;;5033364;27;85351;-57
2022/06/30 04:19:54;;;;;;;58.75;49.50;;;24.30;56.80;;;;;;5024207;27;85588;-55
2022/06/30 04:22:20;;;;;;;58.97;49.63;;;24.30;56.80;;;;;;5022112;27;90277;-55
2022/06/30 04:24:45;;;;;;;61.28;49.65;;;24.30;56.90;;;;;;5013393;27;88940;-57
2022/06/30 04:27:12;;;;;;;58.22;49.55;;;24.20;56.80;;;;;;5004388;27;86641;-57
2022/06/30 04:29:38;;;;;;;59.00;49.72;;;24.20;56.80;;;;;;5030852;27;89245;-56
2022/06/30 04:34:48;;;;;;;58.85;49.60;;;24.30;56.80;;;;;;5027315;27;85864;-57
2022/06/30 04:37:16;;;;;;;58.42;49.65;;;24.30;56.70;;;;;;5028723;27;85980;-53
2022/06/30 04:39:42;;;;;;;58.20;49.70;;;24.30;56.70;;;;;;5030052;27;85151;-57
2022/06/30 04:42:07;;;;;;;57.80;49.35;;;24.40;56.60;;;;;;5023087;27;90384;-56
2022/06/30 04:44:33;;;;;;;58.42;49.72;;;24.40;56.60;;;;;;5034092;27;85236;-56
2022/06/30 04:46:58;;;;;;;58.95;49.72;;;24.40;56.80;;;;;;5015506;27;90062;-56
2022/06/30 04:49:24;;;;;;;58.17;49.60;;;24.40;56.70;;;;;;5028928;27;87058;-55
2022/06/30 04:51:50;;;;;;;59.00;49.83;;;24.40;56.60;;;;;;5017587;27;89599;-57
2022/06/30 04:54:16;;;;;;;58.08;49.65;;;24.40;56.60;;;;;;5024144;27;85870;-57
2022/06/30 04:56:42;;;;;;;58.40;49.83;;;24.50;56.80;;;;;;5030994;27;85449;-57
2022/06/30 04:59:07;;;;;;;57.88;49.45;;;24.40;56.70;;;;;;5027457;27;87168;-57
2022/06/30 05:01:33;;;;;;;58.38;49.63;;;24.50;56.60;;;;;;5028068;27;88781;-56
2022/06/30 05:03:59;;;;;;;58.78;49.83;;;24.50;56.50;;;;;;5024022;27;87222;-56
2022/06/30 05:06:24;;;;;;;58.53;49.60;;;24.50;56.40;;;;;;5029686;27;86964;-56
2022/06/30 05:08:50;;;;;;;58.80;49.63;;;24.60;56.40;;;;;;5034705;27;87182;-57
2022/06/30 05:11:16;;;;;;;58.63;49.55;;;24.60;56.30;;;;;;5023880;27;86214;-57
2022/06/30 05:13:41;;;;;;;58.60;49.78;;;24.60;56.20;;;;;;5034138;27;85614;-57
2022/06/30 05:16:07;;;;;;;60.65;49.80;;;24.60;56.10;;;;;;5030522;27;85331;-54
2022/06/30 05:18:33;;;;;;;59.53;49.85;;;24.60;56.20;;;;;;5035776;27;85595;-54
2022/06/30 05:20:58;;;;;;;59.20;49.92;;;24.60;56.10;;;;;;5029531;27;87328;-57
2022/06/30 05:23:24;;;;;;;58.92;49.85;;;24.60;56.10;;;;;;5035230;27;86181;-57
2022/06/30 05:28:34;;;;;;;59.25;49.63;;;24.70;56.30;;;;;;5036543;27;87513;-56
2022/06/30 05:31:00;;;;;;;58.80;49.75;;;24.70;56.60;;;;;;5034702;27;85842;-56
2022/06/30 05:33:25;;;;;;;58.42;49.67;;;24.60;56.50;;;;;;5034474;27;85537;-56
2022/06/30 05:35:53;;;;;;;59.00;49.95;;;24.70;56.30;;;;;;5027540;27;86847;-55
2022/06/30 05:38:19;;;;;;;59.00;49.72;;;24.70;56.20;;;;;;5017198;27;86695;-59
2022/06/30 05:40:46;;;;;;;58.47;49.85;;;24.70;56.00;;;;;;5004076;27;86294;-58
2022/06/30 05:43:13;;;;;;;59.78;50.03;;;24.70;56.20;;;;;;5019196;27;86050;-49
2022/06/30 05:45:44;;;;;;;60.70;50.45;;;24.60;54.90;;;;;;5022774;27;85788;-48
2022/06/30 05:48:09;;;;;;;61.65;50.33;;;24.30;54.70;;;;;;5017083;27;86583;-53
2022/06/30 05:50:35;;;;;;;62.33;50.25;;;24.00;55.60;;;;;;5031638;27;85579;-50
2022/06/30 05:53:01;;;;;;;59.60;50.15;;;23.90;56.30;;;;;;5016685;27;86297;-52
2022/06/30 05:55:27;;;;;;;59.97;50.17;;;23.70;55.90;;;;;;5024369;27;88002;-53
2022/06/30 05:58:04;;;;;;;59.88;50.13;;;23.70;56.00;;;;;;5013665;27;85773;-53
2022/06/30 06:00:31;;;;;;;59.45;50.00;;;23.60;55.70;;;;;;5029902;27;85886;-52
2022/06/30 06:02:57;;;;;;;62.55;50.15;;;23.60;55.90;;;;;;5022296;27;85483;-50
2022/06/30 06:05:24;;;;;;;60.00;49.85;;;23.30;56.00;;;;;;5021247;27;87433;-54
2022/06/30 06:07:50;;;;;;;62.38;50.35;;;23.30;56.40;;;;;;5016718;27;86636;-49
2022/06/30 06:10:16;;;;;;;60.97;50.08;;;23.20;56.40;;;;;;5019547;27;85739;-50
2022/06/30 06:12:43;;;;;;;63.33;50.17;;;23.20;57.20;;;;;;5005607;27;85496;-54
2022/06/30 06:15:13;;;;;;;61.17;50.05;;;23.30;57.20;;;;;;5034470;27;85414;-52
2022/06/30 06:17:47;;;;;;;59.65;50.03;;;23.20;57.50;;;;;;5024280;27;85677;-51
2022/06/30 06:20:15;;;;;;;61.70;50.25;;;23.20;57.20;;;;;;5021410;27;85762;-50
2022/06/30 06:22:42;;;;;;;58.45;50.00;;;23.00;57.80;;;;;;4969605;27;86070;-49
2022/06/30 06:25:09;;;;;;;58.58;50.00;;;22.80;58.80;;;;;;5022689;27;86166;-46
2022/06/30 06:27:35;;;;;;;59.20;49.63;;;22.50;59.30;;;;;;5023454;27;86078;-50
2022/06/30 06:30:03;;;;;;;60.83;50.25;;;22.50;60.00;;;;;;5027452;27;86192;-49
2022/06/30 06:32:30;;;;;;;62.20;49.92;;;22.30;60.60;;;;;;5008188;27;87728;-49
2022/06/30 06:34:56;;;;;;;60.05;50.05;;;22.20;60.50;;;;;;5025556;27;86667;-47
2022/06/30 06:37:23;;;;;;;61.40;50.20;;;22.20;61.70;;;;;;5009688;27;85599;-52
2022/06/30 06:39:48;;;;;;;60.30;50.15;;;22.20;61.90;;;;;;5007345;27;85078;-50
2022/06/30 06:42:15;;;;;;;59.25;50.15;;;22.20;61.90;;;;;;5012534;27;85178;-53
2022/06/30 06:44:41;;;;;;;61.00;50.10;;;22.30;60.60;;;;;;5021636;27;86111;-50
2022/06/30 06:47:07;;;;;;;59.90;50.05;;;22.20;61.50;;;;;;5020192;27;88943;-49
2022/06/30 06:49:34;;;;;;;60.50;49.80;;;22.10;62.50;;;;;;5023855;27;85434;-47
2022/06/30 06:52:02;;;;;;;60.33;49.92;;;22.00;62.60;;;;;;5032943;27;85513;-56
2022/06/30 06:54:28;;;;;;;60.88;50.38;;;22.20;61.70;;;;;;5003159;27;88869;-51
2022/06/30 06:56:54;;;;;;;60.30;50.17;;;22.10;61.60;;;;;;5019064;27;86053;-48
2022/06/30 06:59:19;;;;;;;58.97;49.75;;;21.80;62.40;;;;;;5013362;27;86772;-55
2022/06/30 07:01:45;;;;;;;59.33;50.05;;;21.60;64.30;;;;;;5021412;27;89911;-53
2022/06/30 07:04:11;;;;;;;58.95;49.85;;;21.70;63.70;;;;;;5009583;27;85654;-52
2022/06/30 07:06:36;;;;;;;61.33;49.92;;;21.50;65.60;;;;;;5026380;27;85825;-53
2022/06/30 07:09:03;;;;;;;60.33;49.65;;;21.40;65.40;;;;;;5026285;27;86376;-54
2022/06/30 07:11:28;;;;;;;60.95;49.83;;;21.40;66.70;;;;;;5032775;27;85541;-50
2022/06/30 07:13:54;;;;;;;60.38;49.85;;;21.60;65.50;;;;;;5003419;27;89517;-50
2022/06/30 07:16:20;;;;;;;60.53;50.13;;;21.60;65.50;;;;;;5015896;27;85436;-49
2022/06/30 07:18:45;;;;;;;60.03;49.80;;;21.60;65.90;;;;;;5004010;27;91159;-55
2022/06/30 07:21:11;;;;;;;58.95;49.53;;;21.60;65.70;;;;;;5025838;27;85213;-49
2022/06/30 07:23:37;;;;;;;59.33;49.92;;;21.50;67.00;;;;;;5017179;27;86103;-48
2022/06/30 07:26:03;;;;;;;60.53;49.42;;;21.50;67.50;;;;;;5025418;27;87991;-46
2022/06/30 07:28:28;;;;;;;59.75;49.55;;;21.40;67.60;;;;;;5007006;27;86504;-47
2022/06/30 07:30:54;;;;;;;60.03;49.58;;;21.40;67.70;;;;;;5024745;27;86397;-50
2022/06/30 07:33:19;;;;;;;57.55;49.60;;;21.40;68.40;;;;;;5025557;27;85397;-52
2022/06/30 07:35:46;;;;;;;58.83;49.30;;;21.40;68.00;;;;;;5019127;27;86178;-54
2022/06/30 07:38:12;;;;;;;59.67;49.25;;;21.30;70.50;;;;;;5022007;27;85961;-49
2022/06/30 07:40:38;;;;;;;59.42;49.22;;;21.30;68.40;;;;;;5026811;27;85190;-51
2022/06/30 07:43:04;;;;;;;60.95;49.35;;;21.40;68.00;;;;;;5020455;27;85810;-49
2022/06/30 07:45:29;;;;;;;57.50;49.30;;;21.20;68.70;;;;;;5015248;27;86132;-48
2022/06/30 07:47:55;;;;;;;58.83;49.28;;;21.30;69.10;;;;;;5025382;27;87423;-50
2022/06/30 07:50:22;;;;;;;58.00;49.55;;;21.40;68.90;;;;;;5017731;27;85742;-50
2022/06/30 07:52:48;;;;;;;58.15;49.45;;;21.40;70.00;;;;;;5024663;27;87322;-51
2022/06/30 07:55:14;;;;;;;59.92;49.72;;;21.40;69.90;;;;;;5020205;27;86110;-55
2022/06/30 07:57:46;;;;;;;57.28;49.47;;;21.50;69.30;;;;;;5016288;27;88838;-56
2022/06/30 08:00:13;;;;;;;56.50;49.33;;;21.60;67.70;;;;;;5025676;27;86721;-54
2022/06/30 08:02:39;;;;;;;59.55;49.75;;;21.80;67.80;;;;;;5027926;27;86308;-49
2022/06/30 08:05:06;;;;;;;59.13;49.65;;;21.90;67.30;;;;;;5012124;27;87322;-56
2022/06/30 08:07:32;;;;;;;58.75;49.17;;;21.70;67.20;;;;;;5020755;27;90439;-57
2022/06/30 08:09:58;;;;;;;59.70;49.83;;;21.40;69.10;;;;;;5017363;27;86892;-55
2022/06/30 08:12:24;;;;;;;59.70;49.78;;;21.50;68.80;;;;;;5022555;27;85917;-53
2022/06/30 08:14:50;;;;;;;60.33;49.63;;;21.40;68.10;;;;;;5017857;27;85891;-52
2022/06/30 08:17:15;;;;;;;57.92;49.55;;;21.50;69.30;;;;;;5019498;27;86395;-55
2022/06/30 08:19:41;;;;;;;59.53;49.30;;;21.50;68.40;;;;;;5013207;27;85496;-56
2022/06/30 08:22:07;;;;;;;59.13;49.67;;;21.30;69.60;;;;;;5026644;27;86379;-50
2022/06/30 08:24:33;;;;;;;59.25;49.78;;;21.00;70.30;;;;;;5018676;27;86651;-52
2022/06/30 08:27:02;;;;;;;61.08;49.65;;;21.00;72.00;;;;;;5009831;27;90865;-51
2022/06/30 08:29:28;;;;;;;57.90;49.53;;;21.00;71.70;;;;;;5008298;27;85597;-55
2022/06/30 08:31:54;;;;;;;59.80;49.30;;;20.90;72.60;;;;;;5031372;27;84999;-50
2022/06/30 08:34:20;;;;;;;57.95;49.28;;;20.90;70.60;;;;;;5012714;27;86156;-52
2022/06/30 08:36:45;;;;;;;59.25;49.55;;;21.00;72.00;;;;;;5021235;27;88930;-54
2022/06/30 08:42:02;;;;;;;59.58;49.53;;;21.10;71.80;;;;;;5025502;27;85942;-55
2022/06/30 08:42:03;;;;;;;60.35;49.78;;;21.10;70.70;;;;;;5020265;27;87666;-55
2022/06/30 08:44:32;;;;;;;58.20;49.35;;;21.00;71.80;;;;;;5019391;27;88022;-50
2022/06/30 08:46:58;;;;;;;59.50;49.10;;;21.10;71.20;;;;;;5013481;27;85706;-54
2022/06/30 08:49:24;;;;;;;59.22;50.10;;;21.20;70.90;;;;;;5020805;27;86757;-56
2022/06/30 08:51:52;;;;;;;60.08;49.83;;;21.50;68.50;;;;;;5025730;27;86165;-52
2022/06/30 08:54:21;;;;;;;60.20;49.85;;;21.60;69.00;;;;;;5023650;27;86216;-53
2022/06/30 08:56:50;;;;;;;60.38;49.97;;;21.80;68.50;;;;;;5023552;27;86274;-50
2022/06/30 08:59:16;;;;;;;57.83;49.75;;;21.80;68.10;;;;;;5029925;27;85686;-51
2022/06/30 09:01:42;;;;;;;62.35;50.10;;;21.80;68.20;;;;;;5023337;27;88546;-51
2022/06/30 09:04:12;;;;;;;61.03;49.85;;;21.90;68.40;;;;;;5010747;27;85276;-53
2022/06/30 09:06:37;;;;;;;65.57;50.20;;;22.10;68.30;;;;;;5019078;27;86748;-49
2022/06/30 09:09:05;;;;;;;61.05;50.90;;;22.20;67.70;;;;;;5033265;27;87103;-48
2022/06/30 09:11:51;;;;;;;60.28;50.10;;;22.30;66.10;;;;;;5021094;27;86916;-54
2022/06/30 09:14:41;;;;;;;60.53;49.85;;;22.40;65.70;;;;;;5028769;27;85750;-55
2022/06/30 09:17:21;;;;;;;61.78;49.92;;;22.50;65.40;;;;;;5024928;27;85478;-57
2022/06/30 09:19:51;;;;;;;58.95;49.92;;;22.60;64.60;;;;;;5033720;27;85451;-51
2022/06/30 09:22:17;;;;;;;60.33;50.00;;;22.30;66.30;;;;;;5027066;27;85223;-51
2022/06/30 09:24:43;;;;;;;60.83;50.00;;;22.30;65.00;;;;;;5022633;27;90823;-52
2022/06/30 09:27:20;;;;;;;58.92;49.65;;;22.10;64.30;;;;;;5018365;27;85922;-49
2022/06/30 09:30:09;;;;;;;60.97;49.83;;;22.10;64.30;;;;;;5013812;27;86297;-49
2022/06/30 09:32:54;;;;;;;59.05;49.88;;;22.10;64.80;;;;;;5013865;27;85905;-45
2022/06/30 09:35:25;;;;;;;59.63;49.83;;;21.90;67.10;;;;;;5009794;27;86833;-49
2022/06/30 09:38:07;;;;;;;60.72;49.95;;;21.90;67.40;;;;;;5029788;27;89353;-48
2022/06/30 09:41:00;;;;;;;57.33;49.63;;;21.90;66.90;;;;;;5021412;27;85441;-48
2022/06/30 09:43:36;;;;;;;57.92;49.30;;;21.90;64.60;;;;;;5021412;27;85781;-45
2022/06/30 09:46:03;;;;;;;59.78;49.58;;;22.00;62.20;;;;;;5019991;27;90082;-51
2022/06/30 09:48:32;;;;;;;58.28;49.30;;;22.00;63.80;;;;;;5029802;27;85969;-52
2022/06/30 09:51:03;;;;;;;59.17;49.88;;;21.90;65.60;;;;;;5018328;27;86172;-50
2022/06/30 09:53:30;;;;;;;62.65;49.72;;;22.00;64.30;;;;;;4990755;27;86375;-53
2022/06/30 09:55:56;;;;;;;59.88;49.58;;;22.10;63.10;;;;;;5004628;27;85529;-54
2022/06/30 09:58:30;;;;;;;58.03;49.72;;;22.00;63.20;;;;;;5029466;27;88736;-51
2022/06/30 10:00:58;;;;;;;61.40;49.65;;;22.00;64.30;;;;;;5017855;27;85996;-50
2022/06/30 10:03:23;;;;;;;59.25;50.15;;;21.90;65.00;;;;;;5022710;27;85066;-49
2022/06/30 10:06:05;;;;;;;62.70;50.08;;;22.00;63.40;;;;;;5024903;27;87470;-47
2022/06/30 10:08:30;;;;;;;59.30;50.08;;;21.90;62.60;;;;;;5029451;27;85720;-50
2022/06/30 10:10:56;;;;;;;59.85;50.13;;;21.80;63.20;;;;;;5032662;27;85661;-52
2022/06/30 10:13:22;;;;;;;59.50;49.97;;;21.80;64.40;;;;;;5027634;27;86254;-54
2022/06/30 10:15:54;;;;;;;61.33;50.05;;;21.80;65.80;;;;;;5035659;27;85628;-48
2022/06/30 10:18:26;;;;;;;59.45;50.00;;;21.80;64.30;;;;;;5032160;27;86652;-49
2022/06/30 10:20:51;;;;;;;58.25;49.80;;;21.80;63.20;;;;;;5029249;27;85488;-51
2022/06/30 10:23:21;;;;;;;58.67;49.58;;;21.60;65.20;;;;;;5024955;27;86054;-48
2022/06/30 10:25:49;;;;;;;60.28;49.92;;;21.70;64.60;;;;;;5018440;27;86725;-58
2022/06/30 10:28:20;;;;;;;58.67;49.45;;;21.70;64.80;;;;;;5016150;27;88224;-56
2022/06/30 10:30:54;;;;;;;58.80;49.45;;;21.60;65.90;;;;;;5012433;27;87989;-58
2022/06/30 10:33:28;;;;;;;59.08;49.50;;;21.80;64.90;;;;;;5032517;27;89766;-58
2022/06/30 10:36:04;;;;;;;58.30;49.22;;;21.70;65.70;;;;;;5024210;27;89810;-58
2022/06/30 10:38:33;;;;;;;57.47;49.53;;;21.70;65.00;;;;;;5021888;27;87154;-58
2022/06/30 10:41:12;;;;;;;61.05;49.78;;;21.60;64.60;;;;;;5006106;27;94070;-57
2022/06/30 10:44:02;;;;;;;59.60;49.60;;;21.40;65.20;;;;;;5012407;27;87709;-52
2022/06/30 10:46:28;;;;;;;57.03;49.58;;;21.60;65.60;;;;;;5017481;27;86663;-54
2022/06/30 10:48:54;;;;;;;61.22;49.55;;;21.80;64.00;;;;;;5016506;27;85034;-54
2022/06/30 10:51:22;;;;;;;58.25;49.65;;;21.70;64.00;;;;;;5034979;27;85458;-56
2022/06/30 10:53:50;;;;;;;58.10;49.72;;;21.60;64.30;;;;;;5024985;27;86294;-54
2022/06/30 10:56:17;;;;;;;60.38;49.67;;;21.40;65.60;;;;;;5015254;27;85859;-56
2022/06/30 10:59:13;;;;;;;60.67;50.10;;;21.30;67.20;;;;;;5021308;27;86318;-55
2022/06/30 11:01:59;;;;;;;58.70;49.95;;;21.20;67.10;;;;;;5002795;27;85548;-56
2022/06/30 11:04:25;;;;;;;58.55;50.15;;;21.30;67.20;;;;;;5015084;27;89769;-56
2022/06/30 11:07:00;;;;;;;58.88;49.90;;;21.50;66.80;;;;;;5003772;27;85680;-54
2022/06/30 11:09:44;;;;;;;58.95;49.90;;;21.50;66.40;;;;;;5018779;27;86167;-57
2022/06/30 11:12:11;;;;;;;59.95;50.13;;;21.40;66.10;;;;;;5022962;27;88032;-55
2022/06/30 11:14:36;;;;;;;62.13;50.20;;;21.30;66.80;;;;;;5031801;27;85717;-54
2022/06/30 11:17:16;;;;;;;58.80;50.35;;;21.20;67.00;;;;;;5020239;27;86051;-54
2022/06/30 11:19:42;;;;;;;60.45;49.85;;;21.40;67.20;;;;;;5034309;27;85396;-56
2022/06/30 11:22:12;;;;;;;59.15;50.42;;;21.50;66.40;;;;;;5000971;27;88546;-53
2022/06/30 11:24:40;;;;;;;59.47;50.15;;;21.40;66.50;;;;;;5029586;27;88484;-56
2022/06/30 11:27:25;;;;;;;59.75;50.20;;;21.10;68.30;;;;;;5027425;27;87569;-54
2022/06/30 11:30:03;;;;;;;59.00;50.05;;;21.20;68.50;;;;;;5010612;27;86345;-51
2022/06/30 11:32:29;;;;;;;64.47;50.35;;;21.10;69.50;;;;;;5016550;27;85412;-48
2022/06/30 11:34:57;;;;;;;60.40;50.13;;;21.10;69.90;;;;;;5024371;27;84966;-47
2022/06/30 11:37:24;;;;;;;59.25;50.00;;;21.00;70.30;;;;;;4986981;27;87560;-50
2022/06/30 11:40:05;;;;;;;59.35;50.40;;;20.90;69.50;;;;;;4999095;27;86351;-50
2022/06/30 11:42:31;;;;;;;62.25;50.70;;;20.80;71.60;;;;;;5015853;27;89558;-56
2022/06/30 11:44:57;;;;;;;62.65;50.80;;;20.80;71.00;;;;;;5035023;27;90397;-55
2022/06/30 11:47:24;;;;;;;60.60;50.67;;;20.60;71.50;;;;;;5024948;27;86245;-56
2022/06/30 11:49:58;;;;;;;59.63;50.05;;;20.60;71.80;;;;;;5018650;27;90626;-53
2022/06/30 11:52:34;;;;;;;58.50;50.47;;;20.70;71.50;;;;;;5001466;27;86884;-54
2022/06/30 11:55:09;;;;;;;59.17;50.30;;;20.60;72.50;;;;;;5024879;27;85907;-54
2022/06/30 11:57:40;;;;;;;58.35;50.35;;;20.60;73.00;;;;;;5016798;27;89584;-56
2022/06/30 12:00:11;;;;;;;60.42;50.30;;;20.70;72.80;;;;;;5019295;27;85940;-52
2022/06/30 12:02:39;;;;;;;60.33;50.08;;;20.60;72.40;;;;;;5023417;27;86690;-50
2022/06/30 12:05:10;;;;;;;60.92;49.72;;;20.50;72.60;;;;;;5006666;27;87405;-54
2022/06/30 12:07:37;;;;;;;56.95;48.67;;;20.60;70.50;;;;;;5017545;27;86397;-54
2022/06/30 12:10:05;;;;;;;55.17;48.38;;;20.40;70.00;;;;;;5017612;27;86634;-54
2022/06/30 12:12:32;;;;;;;56.78;48.33;;;20.30;71.50;;;;;;5020642;27;92189;-55
2022/06/30 12:15:00;;;;;;;56.65;48.40;;;20.40;70.20;;;;;;5022520;27;87337;-52
2022/06/30 12:17:34;;;;;;;54.75;48.17;;;20.40;67.90;;;;;;5011460;27;86797;-50
2022/06/30 12:20:01;;;;;;;57.17;48.58;;;20.30;70.20;;;;;;5014525;27;85503;-53
2022/06/30 12:22:27;;;;;;;56.55;48.42;;;20.20;70.50;;;;;;5028008;27;87923;-53
2022/06/30 12:24:53;;;;;;;58.22;48.53;;;20.20;68.70;;;;;;5021821;27;88048;-50
2022/06/30 12:27:41;;;;;;;59.55;48.35;;;20.00;72.00;;;;;;5030401;27;86400;-52
2022/06/30 12:30:15;;;;;;;54.47;47.67;;;19.90;71.80;;;;;;5024317;27;85605;-52
2022/06/30 12:32:42;;;;;;;57.15;47.92;;;19.90;72.20;;;;;;5023383;27;87928;-50
2022/06/30 12:35:10;;;;;;;55.13;48.25;;;19.90;71.90;;;;;;5002811;27;85252;-53
2022/06/30 12:37:42;;;;;;;56.97;48.03;;;19.90;71.00;;;;;;5025353;27;85615;-52
2022/06/30 12:40:21;;;;;;;58.83;48.83;;;19.80;71.30;;;;;;5026315;27;85713;-53